sensor_id;sensor_type;location;lat;lon;timestamp;P1;durP1;ratioP1;P2;durP2;ratioP2
35257;SDS011;21385;50.878;8.050;2023-07-28T00:02:02;1.25;;;0.85;;
35257;SDS011;21385;50.878;8.050;2023-07-28T00:04:28;0.70;;;0.70;;
35257;SDS011;21385;50.878;8.050;2023-07-28T00:06:54;4.70;;;0.90;;
35257;SDS011;21385;50.878;8.050;2023-07-28T00:09:19;1.30;;;0.70;;
35257;SDS011;21385;50.878;8.050;2023-07-28T00:11:45;1.95;;;0.80;;
35257;SDS011;21385;50.878;8.050;2023-07-28T00:14:11;0.68;;;0.65;;
35257;SDS011;21385;50.878;8.050;2023-07-28T00:16:36;0.50;;;0.50;;
35257;SDS011;21385;50.878;8.050;2023-07-28T00:19:03;0.98;;;0.63;;
35257;SDS011;21385;50.878;8.050;2023-07-28T00:21:29;0.50;;;0.50;;
35257;SDS011;21385;50.878;8.050;2023-07-28T00:23:54;0.63;;;0.63;;
35257;SDS011;21385;50.878;8.050;2023-07-28T00:26:20;0.43;;;0.43;;
35257;SDS011;21385;50.878;8.050;2023-07-28T00:28:45;0.85;;;0.70;;
35257;SDS011;21385;50.878;8.050;2023-07-28T00:31:11;0.35;;;0.35;;
35257;SDS011;21385;50.878;8.050;2023-07-28T00:33:37;3.35;;;0.60;;
35257;SDS011;21385;50.878;8.050;2023-07-28T00:36:03;0.40;;;0.40;;
35257;SDS011;21385;50.878;8.050;2023-07-28T00:38:28;5.22;;;0.93;;
35257;SDS011;21385;50.878;8.050;2023-07-28T00:40:54;0.63;;;0.30;;
35257;SDS011;21385;50.878;8.050;2023-07-28T00:43:19;0.47;;;0.40;;
35257;SDS011;21385;50.878;8.050;2023-07-28T00:45:45;0.30;;;0.30;;
35257;SDS011;21385;50.878;8.050;2023-07-28T00:48:12;0.30;;;0.30;;
35257;SDS011;21385;50.878;8.050;2023-07-28T00:50:40;2.63;;;0.40;;
35257;SDS011;21385;50.878;8.050;2023-07-28T00:53:07;0.32;;;0.30;;
35257;SDS011;21385;50.878;8.050;2023-07-28T00:55:33;0.30;;;0.28;;
35257;SDS011;21385;50.878;8.050;2023-07-28T00:57:59;0.30;;;0.22;;
35257;SDS011;21385;50.878;8.050;2023-07-28T01:00:25;0.52;;;0.40;;
35257;SDS011;21385;50.878;8.050;2023-07-28T01:02:50;0.40;;;0.40;;
35257;SDS011;21385;50.878;8.050;2023-07-28T01:05:16;0.30;;;0.30;;
35257;SDS011;21385;50.878;8.050;2023-07-28T01:10:14;0.50;;;0.50;;
35257;SDS011;21385;50.878;8.050;2023-07-28T01:12:53;1.23;;;0.40;;
35257;SDS011;21385;50.878;8.050;2023-07-28T01:15:19;0.20;;;0.20;;
35257;SDS011;21385;50.878;8.050;2023-07-28T01:17:44;0.52;;;0.22;;
35257;SDS011;21385;50.878;8.050;2023-07-28T01:20:10;0.52;;;0.52;;
35257;SDS011;21385;50.878;8.050;2023-07-28T01:28:14;0.22;;;0.22;;
35257;SDS011;21385;50.878;8.050;2023-07-28T01:30:42;0.38;;;0.38;;
35257;SDS011;21385;50.878;8.050;2023-07-28T01:33:08;0.25;;;0.20;;
35257;SDS011;21385;50.878;8.050;2023-07-28T01:35:35;0.22;;;0.22;;
35257;SDS011;21385;50.878;8.050;2023-07-28T01:38:02;0.32;;;0.32;;
35257;SDS011;21385;50.878;8.050;2023-07-28T01:40:28;0.32;;;0.32;;
35257;SDS011;21385;50.878;8.050;2023-07-28T01:42:53;0.40;;;0.40;;
35257;SDS011;21385;50.878;8.050;2023-07-28T01:45:19;1.00;;;0.50;;
35257;SDS011;21385;50.878;8.050;2023-07-28T01:47:44;1.55;;;0.50;;
35257;SDS011;21385;50.878;8.050;2023-07-28T01:50:10;0.50;;;0.45;;
35257;SDS011;21385;50.878;8.050;2023-07-28T01:52:36;0.40;;;0.40;;
35257;SDS011;21385;50.878;8.050;2023-07-28T01:55:01;0.30;;;0.30;;
35257;SDS011;21385;50.878;8.050;2023-07-28T01:57:27;0.40;;;0.40;;
35257;SDS011;21385;50.878;8.050;2023-07-28T01:59:55;0.50;;;0.35;;
35257;SDS011;21385;50.878;8.050;2023-07-28T02:02:21;0.63;;;0.60;;
35257;SDS011;21385;50.878;8.050;2023-07-28T02:04:46;0.85;;;0.70;;
35257;SDS011;21385;50.878;8.050;2023-07-28T02:07:12;3.50;;;0.70;;
35257;SDS011;21385;50.878;8.050;2023-07-28T02:09:37;1.20;;;0.57;;
35257;SDS011;21385;50.878;8.050;2023-07-28T02:12:03;0.30;;;0.30;;
35257;SDS011;21385;50.878;8.050;2023-07-28T02:14:29;1.25;;;0.43;;
35257;SDS011;21385;50.878;8.050;2023-07-28T02:16:54;3.03;;;0.50;;
35257;SDS011;21385;50.878;8.050;2023-07-28T02:19:20;0.30;;;0.30;;
35257;SDS011;21385;50.878;8.050;2023-07-28T02:21:45;1.67;;;0.30;;
35257;SDS011;21385;50.878;8.050;2023-07-28T02:24:11;0.50;;;0.30;;
35257;SDS011;21385;50.878;8.050;2023-07-28T02:26:36;0.40;;;0.40;;
35257;SDS011;21385;50.878;8.050;2023-07-28T02:29:02;0.20;;;0.20;;
35257;SDS011;21385;50.878;8.050;2023-07-28T02:31:28;1.17;;;0.47;;
35257;SDS011;21385;50.878;8.050;2023-07-28T02:33:53;0.30;;;0.30;;
35257;SDS011;21385;50.878;8.050;2023-07-28T02:36:19;1.10;;;0.55;;
35257;SDS011;21385;50.878;8.050;2023-07-28T02:38:45;0.60;;;0.40;;
35257;SDS011;21385;50.878;8.050;2023-07-28T02:41:11;0.20;;;0.20;;
35257;SDS011;21385;50.878;8.050;2023-07-28T02:43:36;0.10;;;0.10;;
35257;SDS011;21385;50.878;8.050;2023-07-28T02:46:02;0.50;;;0.40;;
35257;SDS011;21385;50.878;8.050;2023-07-28T02:48:28;0.38;;;0.25;;
35257;SDS011;21385;50.878;8.050;2023-07-28T02:50:53;0.40;;;0.40;;
35257;SDS011;21385;50.878;8.050;2023-07-28T02:53:19;1.95;;;0.43;;
35257;SDS011;21385;50.878;8.050;2023-07-28T02:55:45;1.65;;;0.55;;
35257;SDS011;21385;50.878;8.050;2023-07-28T02:58:11;3.95;;;0.50;;
35257;SDS011;21385;50.878;8.050;2023-07-28T03:00:38;0.35;;;0.35;;
35257;SDS011;21385;50.878;8.050;2023-07-28T03:03:08;1.65;;;0.52;;
35257;SDS011;21385;50.878;8.050;2023-07-28T03:05:35;0.28;;;0.28;;
35257;SDS011;21385;50.878;8.050;2023-07-28T03:08:01;0.52;;;0.40;;
35257;SDS011;21385;50.878;8.050;2023-07-28T03:10:27;0.20;;;0.20;;
35257;SDS011;21385;50.878;8.050;2023-07-28T03:12:53;0.22;;;0.22;;
35257;SDS011;21385;50.878;8.050;2023-07-28T03:15:19;0.15;;;0.15;;
35257;SDS011;21385;50.878;8.050;2023-07-28T03:17:47;0.20;;;0.20;;
35257;SDS011;21385;50.878;8.050;2023-07-28T03:20:13;0.30;;;0.30;;
35257;SDS011;21385;50.878;8.050;2023-07-28T03:22:38;0.25;;;0.25;;
35257;SDS011;21385;50.878;8.050;2023-07-28T03:25:04;0.20;;;0.20;;
35257;SDS011;21385;50.878;8.050;2023-07-28T03:27:30;0.13;;;0.13;;
35257;SDS011;21385;50.878;8.050;2023-07-28T03:29:56;5.25;;;0.47;;
35257;SDS011;21385;50.878;8.050;2023-07-28T03:32:21;0.20;;;0.20;;
35257;SDS011;21385;50.878;8.050;2023-07-28T03:34:47;0.52;;;0.30;;
35257;SDS011;21385;50.878;8.050;2023-07-28T03:37:12;0.50;;;0.30;;
35257;SDS011;21385;50.878;8.050;2023-07-28T03:39:38;0.30;;;0.30;;
35257;SDS011;21385;50.878;8.050;2023-07-28T03:42:04;0.55;;;0.45;;
35257;SDS011;21385;50.878;8.050;2023-07-28T03:44:29;0.20;;;0.20;;
35257;SDS011;21385;50.878;8.050;2023-07-28T03:46:55;0.98;;;0.45;;
35257;SDS011;21385;50.878;8.050;2023-07-28T03:49:21;0.17;;;0.17;;
35257;SDS011;21385;50.878;8.050;2023-07-28T03:51:47;0.20;;;0.20;;
35257;SDS011;21385;50.878;8.050;2023-07-28T03:54:12;0.43;;;0.15;;
35257;SDS011;21385;50.878;8.050;2023-07-28T03:56:38;3.50;;;0.60;;
35257;SDS011;21385;50.878;8.050;2023-07-28T03:59:03;0.15;;;0.15;;
35257;SDS011;21385;50.878;8.050;2023-07-28T04:01:29;0.32;;;0.32;;
35257;SDS011;21385;50.878;8.050;2023-07-28T04:03:55;0.57;;;0.17;;
35257;SDS011;21385;50.878;8.050;2023-07-28T04:06:35;0.47;;;0.30;;
35257;SDS011;21385;50.878;8.050;2023-07-28T04:09:08;0.38;;;0.38;;
35257;SDS011;21385;50.878;8.050;2023-07-28T04:11:34;0.13;;;0.13;;
35257;SDS011;21385;50.878;8.050;2023-07-28T04:13:59;0.30;;;0.30;;
35257;SDS011;21385;50.878;8.050;2023-07-28T04:16:25;0.65;;;0.20;;
35257;SDS011;21385;50.878;8.050;2023-07-28T04:18:51;0.20;;;0.20;;
35257;SDS011;21385;50.878;8.050;2023-07-28T04:21:16;6.88;;;0.47;;
35257;SDS011;21385;50.878;8.050;2023-07-28T04:23:42;6.75;;;0.60;;
35257;SDS011;21385;50.878;8.050;2023-07-28T04:26:08;0.40;;;0.30;;
35257;SDS011;21385;50.878;8.050;2023-07-28T04:28:34;2.42;;;0.52;;
35257;SDS011;21385;50.878;8.050;2023-07-28T04:30:59;0.10;;;0.10;;
35257;SDS011;21385;50.878;8.050;2023-07-28T04:33:25;0.10;;;0.10;;
35257;SDS011;21385;50.878;8.050;2023-07-28T04:35:51;0.45;;;0.30;;
35257;SDS011;21385;50.878;8.050;2023-07-28T04:38:16;0.55;;;0.22;;
35257;SDS011;21385;50.878;8.050;2023-07-28T04:40:43;0.45;;;0.35;;
35257;SDS011;21385;50.878;8.050;2023-07-28T04:43:09;0.10;;;0.10;;
35257;SDS011;21385;50.878;8.050;2023-07-28T04:45:35;0.20;;;0.20;;
35257;SDS011;21385;50.878;8.050;2023-07-28T04:48:00;0.38;;;0.25;;
35257;SDS011;21385;50.878;8.050;2023-07-28T04:50:26;0.20;;;0.20;;
35257;SDS011;21385;50.878;8.050;2023-07-28T04:52:53;0.10;;;0.10;;
35257;SDS011;21385;50.878;8.050;2023-07-28T04:55:18;0.25;;;0.20;;
35257;SDS011;21385;50.878;8.050;2023-07-28T04:57:44;0.10;;;0.10;;
35257;SDS011;21385;50.878;8.050;2023-07-28T05:00:10;0.10;;;0.10;;
35257;SDS011;21385;50.878;8.050;2023-07-28T05:02:36;0.00;;;0.00;;
35257;SDS011;21385;50.878;8.050;2023-07-28T05:05:01;0.93;;;0.10;;
35257;SDS011;21385;50.878;8.050;2023-07-28T05:07:27;0.20;;;0.20;;
35257;SDS011;21385;50.878;8.050;2023-07-28T05:09:54;0.38;;;0.10;;
35257;SDS011;21385;50.878;8.050;2023-07-28T05:12:19;0.63;;;0.40;;
35257;SDS011;21385;50.878;8.050;2023-07-28T05:14:45;0.40;;;0.40;;
35257;SDS011;21385;50.878;8.050;2023-07-28T05:17:11;1.25;;;0.52;;
35257;SDS011;21385;50.878;8.050;2023-07-28T05:19:37;0.20;;;0.20;;
35257;SDS011;21385;50.878;8.050;2023-07-28T05:22:02;0.40;;;0.25;;
35257;SDS011;21385;50.878;8.050;2023-07-28T05:24:28;0.40;;;0.30;;
35257;SDS011;21385;50.878;8.050;2023-07-28T05:26:54;0.22;;;0.20;;
35257;SDS011;21385;50.878;8.050;2023-07-28T05:29:19;0.17;;;0.17;;
35257;SDS011;21385;50.878;8.050;2023-07-28T05:31:45;0.10;;;0.10;;
35257;SDS011;21385;50.878;8.050;2023-07-28T05:34:11;0.20;;;0.17;;
35257;SDS011;21385;50.878;8.050;2023-07-28T05:36:39;0.20;;;0.20;;
35257;SDS011;21385;50.878;8.050;2023-07-28T05:39:05;0.03;;;0.03;;
35257;SDS011;21385;50.878;8.050;2023-07-28T05:41:30;0.45;;;0.20;;
35257;SDS011;21385;50.878;8.050;2023-07-28T05:43:57;0.20;;;0.10;;
35257;SDS011;21385;50.878;8.050;2023-07-28T05:46:22;0.20;;;0.20;;
35257;SDS011;21385;50.878;8.050;2023-07-28T05:48:48;0.10;;;0.10;;
35257;SDS011;21385;50.878;8.050;2023-07-28T05:51:14;0.10;;;0.10;;
35257;SDS011;21385;50.878;8.050;2023-07-28T05:53:39;0.10;;;0.10;;
35257;SDS011;21385;50.878;8.050;2023-07-28T05:56:05;0.15;;;0.15;;
35257;SDS011;21385;50.878;8.050;2023-07-28T05:58:31;0.20;;;0.20;;
35257;SDS011;21385;50.878;8.050;2023-07-28T06:00:56;0.50;;;0.30;;
35257;SDS011;21385;50.878;8.050;2023-07-28T06:03:22;0.17;;;0.17;;
35257;SDS011;21385;50.878;8.050;2023-07-28T06:05:48;0.20;;;0.20;;
35257;SDS011;21385;50.878;8.050;2023-07-28T06:08:13;0.20;;;0.20;;
35257;SDS011;21385;50.878;8.050;2023-07-28T06:10:39;0.20;;;0.20;;
35257;SDS011;21385;50.878;8.050;2023-07-28T06:13:04;0.98;;;0.20;;
35257;SDS011;21385;50.878;8.050;2023-07-28T06:15:30;0.20;;;0.20;;
35257;SDS011;21385;50.878;8.050;2023-07-28T06:17:56;0.28;;;0.28;;
35257;SDS011;21385;50.878;8.050;2023-07-28T06:20:22;2.17;;;0.30;;
35257;SDS011;21385;50.878;8.050;2023-07-28T06:22:47;0.30;;;0.20;;
35257;SDS011;21385;50.878;8.050;2023-07-28T06:25:13;0.30;;;0.30;;
35257;SDS011;21385;50.878;8.050;2023-07-28T06:27:39;0.38;;;0.38;;
35257;SDS011;21385;50.878;8.050;2023-07-28T06:30:04;0.15;;;0.15;;
35257;SDS011;21385;50.878;8.050;2023-07-28T06:32:30;0.20;;;0.20;;
35257;SDS011;21385;50.878;8.050;2023-07-28T06:34:56;0.15;;;0.15;;
35257;SDS011;21385;50.878;8.050;2023-07-28T06:37:22;0.10;;;0.10;;
35257;SDS011;21385;50.878;8.050;2023-07-28T06:39:48;0.20;;;0.20;;
35257;SDS011;21385;50.878;8.050;2023-07-28T06:42:14;0.20;;;0.20;;
35257;SDS011;21385;50.878;8.050;2023-07-28T06:44:41;0.10;;;0.10;;
35257;SDS011;21385;50.878;8.050;2023-07-28T06:47:07;0.20;;;0.20;;
35257;SDS011;21385;50.878;8.050;2023-07-28T06:49:32;0.55;;;0.20;;
35257;SDS011;21385;50.878;8.050;2023-07-28T06:51:58;0.38;;;0.20;;
35257;SDS011;21385;50.878;8.050;2023-07-28T06:54:24;0.32;;;0.30;;
35257;SDS011;21385;50.878;8.050;2023-07-28T06:56:50;0.10;;;0.10;;
35257;SDS011;21385;50.878;8.050;2023-07-28T06:59:15;0.10;;;0.10;;
35257;SDS011;21385;50.878;8.050;2023-07-28T07:01:41;0.10;;;0.10;;
35257;SDS011;21385;50.878;8.050;2023-07-28T07:04:06;0.20;;;0.20;;
35257;SDS011;21385;50.878;8.050;2023-07-28T07:06:32;0.15;;;0.15;;
35257;SDS011;21385;50.878;8.050;2023-07-28T07:08:58;0.20;;;0.20;;
35257;SDS011;21385;50.878;8.050;2023-07-28T07:11:24;0.45;;;0.28;;
35257;SDS011;21385;50.878;8.050;2023-07-28T07:13:49;0.20;;;0.20;;
35257;SDS011;21385;50.878;8.050;2023-07-28T07:16:15;0.13;;;0.13;;
35257;SDS011;21385;50.878;8.050;2023-07-28T07:18:44;0.10;;;0.10;;
35257;SDS011;21385;50.878;8.050;2023-07-28T07:21:10;0.30;;;0.20;;
35257;SDS011;21385;50.878;8.050;2023-07-28T07:23:36;0.30;;;0.30;;
35257;SDS011;21385;50.878;8.050;2023-07-28T07:26:03;0.20;;;0.20;;
35257;SDS011;21385;50.878;8.050;2023-07-28T07:28:29;0.85;;;0.32;;
35257;SDS011;21385;50.878;8.050;2023-07-28T07:30:55;0.10;;;0.10;;
35257;SDS011;21385;50.878;8.050;2023-07-28T07:33:21;0.13;;;0.13;;
35257;SDS011;21385;50.878;8.050;2023-07-28T07:35:47;0.20;;;0.20;;
35257;SDS011;21385;50.878;8.050;2023-07-28T07:38:13;0.10;;;0.10;;
35257;SDS011;21385;50.878;8.050;2023-07-28T07:40:39;0.20;;;0.20;;
35257;SDS011;21385;50.878;8.050;2023-07-28T07:43:05;0.50;;;0.30;;
35257;SDS011;21385;50.878;8.050;2023-07-28T07:45:31;0.20;;;0.20;;
35257;SDS011;21385;50.878;8.050;2023-07-28T07:48:00;5.45;;;0.50;;
35257;SDS011;21385;50.878;8.050;2023-07-28T07:50:26;0.20;;;0.20;;
35257;SDS011;21385;50.878;8.050;2023-07-28T07:52:52;0.10;;;0.10;;
35257;SDS011;21385;50.878;8.050;2023-07-28T07:55:18;0.55;;;0.30;;
35257;SDS011;21385;50.878;8.050;2023-07-28T07:57:43;0.20;;;0.20;;
35257;SDS011;21385;50.878;8.050;2023-07-28T08:00:09;0.20;;;0.20;;
35257;SDS011;21385;50.878;8.050;2023-07-28T08:02:36;0.15;;;0.15;;
35257;SDS011;21385;50.878;8.050;2023-07-28T08:05:01;0.55;;;0.38;;
35257;SDS011;21385;50.878;8.050;2023-07-28T08:07:28;0.30;;;0.30;;
35257;SDS011;21385;50.878;8.050;2023-07-28T08:09:53;0.10;;;0.10;;
35257;SDS011;21385;50.878;8.050;2023-07-28T08:12:19;0.52;;;0.30;;
35257;SDS011;21385;50.878;8.050;2023-07-28T08:14:45;0.28;;;0.20;;
35257;SDS011;21385;50.878;8.050;2023-07-28T08:17:13;3.63;;;0.20;;
35257;SDS011;21385;50.878;8.050;2023-07-28T08:19:39;0.10;;;0.10;;
35257;SDS011;21385;50.878;8.050;2023-07-28T08:22:05;0.20;;;0.20;;
35257;SDS011;21385;50.878;8.050;2023-07-28T08:24:31;0.15;;;0.15;;
35257;SDS011;21385;50.878;8.050;2023-07-28T08:26:57;1.95;;;0.20;;
35257;SDS011;21385;50.878;8.050;2023-07-28T08:29:22;0.35;;;0.30;;
35257;SDS011;21385;50.878;8.050;2023-07-28T08:31:48;0.10;;;0.10;;
35257;SDS011;21385;50.878;8.050;2023-07-28T08:34:13;0.28;;;0.28;;
35257;SDS011;21385;50.878;8.050;2023-07-28T08:36:40;0.63;;;0.30;;
35257;SDS011;21385;50.878;8.050;2023-07-28T08:39:06;0.40;;;0.40;;
35257;SDS011;21385;50.878;8.050;2023-07-28T08:41:31;0.95;;;0.40;;
35257;SDS011;21385;50.878;8.050;2023-07-28T08:43:57;0.30;;;0.30;;
35257;SDS011;21385;50.878;8.050;2023-07-28T08:46:23;0.95;;;0.30;;
35257;SDS011;21385;50.878;8.050;2023-07-28T08:48:49;0.65;;;0.50;;
35257;SDS011;21385;50.878;8.050;2023-07-28T08:57:02;0.75;;;0.63;;
35257;SDS011;21385;50.878;8.050;2023-07-28T08:59:28;2.33;;;1.02;;
35257;SDS011;21385;50.878;8.050;2023-07-28T09:01:57;1.65;;;1.17;;
35257;SDS011;21385;50.878;8.050;2023-07-28T09:04:24;0.70;;;0.70;;
35257;SDS011;21385;50.878;8.050;2023-07-28T09:06:50;0.85;;;0.82;;
35257;SDS011;21385;50.878;8.050;2023-07-28T09:09:17;1.75;;;1.15;;
35257;SDS011;21385;50.878;8.050;2023-07-28T09:11:45;0.95;;;0.80;;
35257;SDS011;21385;50.878;8.050;2023-07-28T09:14:12;0.77;;;0.77;;
35257;SDS011;21385;50.878;8.050;2023-07-28T09:16:39;0.75;;;0.75;;
35257;SDS011;21385;50.878;8.050;2023-07-28T09:19:06;0.80;;;0.63;;
35257;SDS011;21385;50.878;8.050;2023-07-28T09:21:32;1.20;;;0.90;;
35257;SDS011;21385;50.878;8.050;2023-07-28T09:24:01;0.63;;;0.63;;
35257;SDS011;21385;50.878;8.050;2023-07-28T09:26:43;0.70;;;0.70;;
35257;SDS011;21385;50.878;8.050;2023-07-28T09:29:14;0.97;;;0.90;;
35257;SDS011;21385;50.878;8.050;2023-07-28T09:31:44;1.10;;;1.00;;
35257;SDS011;21385;50.878;8.050;2023-07-28T09:34:10;2.78;;;0.70;;
35257;SDS011;21385;50.878;8.050;2023-07-28T09:36:37;1.02;;;1.00;;
35257;SDS011;21385;50.878;8.050;2023-07-28T09:39:07;1.23;;;0.90;;
35257;SDS011;21385;50.878;8.050;2023-07-28T09:41:37;1.90;;;0.80;;
35257;SDS011;21385;50.878;8.050;2023-07-28T09:44:03;1.70;;;1.25;;
35257;SDS011;21385;50.878;8.050;2023-07-28T09:46:30;3.47;;;2.47;;
35257;SDS011;21385;50.878;8.050;2023-07-28T09:51:34;2.75;;;2.03;;
35257;SDS011;21385;50.878;8.050;2023-07-28T09:54:06;5.72;;;3.25;;
35257;SDS011;21385;50.878;8.050;2023-07-28T09:56:43;3.53;;;3.00;;
35257;SDS011;21385;50.878;8.050;2023-07-28T09:59:12;5.55;;;3.80;;
35257;SDS011;21385;50.878;8.050;2023-07-28T10:01:41;3.30;;;2.93;;
35257;SDS011;21385;50.878;8.050;2023-07-28T10:04:09;3.90;;;3.03;;
35257;SDS011;21385;50.878;8.050;2023-07-28T10:06:35;3.15;;;2.85;;
35257;SDS011;21385;50.878;8.050;2023-07-28T10:09:03;1.75;;;1.48;;
35257;SDS011;21385;50.878;8.050;2023-07-28T10:11:30;1.83;;;1.73;;
35257;SDS011;21385;50.878;8.050;2023-07-28T10:13:56;2.55;;;1.85;;
35257;SDS011;21385;50.878;8.050;2023-07-28T10:16:38;2.75;;;1.92;;
35257;SDS011;21385;50.878;8.050;2023-07-28T10:19:04;4.35;;;2.10;;
35257;SDS011;21385;50.878;8.050;2023-07-28T10:21:30;1.40;;;1.30;;
35257;SDS011;21385;50.878;8.050;2023-07-28T10:23:57;1.60;;;1.50;;
35257;SDS011;21385;50.878;8.050;2023-07-28T10:26:36;2.60;;;1.35;;
35257;SDS011;21385;50.878;8.050;2023-07-28T10:29:14;5.87;;;1.27;;
35257;SDS011;21385;50.878;8.050;2023-07-28T10:34:58;0.90;;;0.80;;
35257;SDS011;21385;50.878;8.050;2023-07-28T10:37:25;1.73;;;0.85;;
35257;SDS011;21385;50.878;8.050;2023-07-28T10:40:21;1.05;;;0.90;;
35257;SDS011;21385;50.878;8.050;2023-07-28T10:42:49;0.63;;;0.63;;
35257;SDS011;21385;50.878;8.050;2023-07-28T10:45:15;0.68;;;0.68;;
35257;SDS011;21385;50.878;8.050;2023-07-28T10:47:41;1.92;;;0.52;;
35257;SDS011;21385;50.878;8.050;2023-07-28T10:50:10;3.92;;;0.50;;
35257;SDS011;21385;50.878;8.050;2023-07-28T10:52:39;0.40;;;0.40;;
35257;SDS011;21385;50.878;8.050;2023-07-28T10:55:11;0.40;;;0.40;;
35257;SDS011;21385;50.878;8.050;2023-07-28T10:57:43;0.50;;;0.50;;
35257;SDS011;21385;50.878;8.050;2023-07-28T11:00:10;0.52;;;0.52;;
35257;SDS011;21385;50.878;8.050;2023-07-28T11:02:38;1.92;;;0.70;;
35257;SDS011;21385;50.878;8.050;2023-07-28T11:05:11;0.90;;;0.52;;
35257;SDS011;21385;50.878;8.050;2023-07-28T11:07:43;0.30;;;0.30;;
35257;SDS011;21385;50.878;8.050;2023-07-28T11:10:12;0.47;;;0.40;;
35257;SDS011;21385;50.878;8.050;2023-07-28T11:12:45;0.90;;;0.40;;
35257;SDS011;21385;50.878;8.050;2023-07-28T11:15:13;1.00;;;0.43;;
35257;SDS011;21385;50.878;8.050;2023-07-28T11:17:39;0.35;;;0.28;;
35257;SDS011;21385;50.878;8.050;2023-07-28T11:22:43;0.30;;;0.30;;
35257;SDS011;21385;50.878;8.050;2023-07-28T11:25:31;6.22;;;0.80;;
35257;SDS011;21385;50.878;8.050;2023-07-28T11:28:00;0.40;;;0.40;;
35257;SDS011;21385;50.878;8.050;2023-07-28T11:30:28;0.30;;;0.30;;
35257;SDS011;21385;50.878;8.050;2023-07-28T11:32:54;0.38;;;0.20;;
35257;SDS011;21385;50.878;8.050;2023-07-28T11:35:20;0.30;;;0.30;;
35257;SDS011;21385;50.878;8.050;2023-07-28T11:37:50;0.40;;;0.40;;
35257;SDS011;21385;50.878;8.050;2023-07-28T11:40:18;0.22;;;0.10;;
35257;SDS011;21385;50.878;8.050;2023-07-28T11:42:47;0.10;;;0.10;;
35257;SDS011;21385;50.878;8.050;2023-07-28T11:45:15;2.17;;;0.40;;
35257;SDS011;21385;50.878;8.050;2023-07-28T12:07:36;0.20;;;0.20;;
35257;SDS011;21385;50.878;8.050;2023-07-28T12:10:05;0.32;;;0.32;;
35257;SDS011;21385;50.878;8.050;2023-07-28T12:12:42;6.38;;;0.35;;
35257;SDS011;21385;50.878;8.050;2023-07-28T12:18:09;0.20;;;0.20;;
35257;SDS011;21385;50.878;8.050;2023-07-28T12:20:42;0.20;;;0.20;;
35257;SDS011;21385;50.878;8.050;2023-07-28T12:23:11;0.47;;;0.40;;
35257;SDS011;21385;50.878;8.050;2023-07-28T12:25:38;1.60;;;0.40;;
35257;SDS011;21385;50.878;8.050;2023-07-28T12:28:04;0.50;;;0.50;;
35257;SDS011;21385;50.878;8.050;2023-07-28T12:30:30;0.40;;;0.40;;
35257;SDS011;21385;50.878;8.050;2023-07-28T12:32:57;0.10;;;0.10;;
35257;SDS011;21385;50.878;8.050;2023-07-28T12:35:23;2.35;;;0.30;;
35257;SDS011;21385;50.878;8.050;2023-07-28T12:37:50;3.03;;;0.20;;
35257;SDS011;21385;50.878;8.050;2023-07-28T12:40:16;0.20;;;0.20;;
35257;SDS011;21385;50.878;8.050;2023-07-28T12:42:44;1.88;;;0.25;;
35257;SDS011;21385;50.878;8.050;2023-07-28T12:45:11;1.48;;;0.25;;
35257;SDS011;21385;50.878;8.050;2023-07-28T12:47:36;0.22;;;0.20;;
35257;SDS011;21385;50.878;8.050;2023-07-28T12:50:02;0.10;;;0.10;;
35257;SDS011;21385;50.878;8.050;2023-07-28T12:52:29;0.50;;;0.20;;
35257;SDS011;21385;50.878;8.050;2023-07-28T12:54:54;0.52;;;0.35;;
35257;SDS011;21385;50.878;8.050;2023-07-28T12:57:20;0.25;;;0.25;;
35257;SDS011;21385;50.878;8.050;2023-07-28T12:59:46;0.20;;;0.20;;
35257;SDS011;21385;50.878;8.050;2023-07-28T13:02:11;0.20;;;0.20;;
35257;SDS011;21385;50.878;8.050;2023-07-28T13:04:37;0.50;;;0.50;;
35257;SDS011;21385;50.878;8.050;2023-07-28T13:07:02;0.40;;;0.40;;
35257;SDS011;21385;50.878;8.050;2023-07-28T13:09:28;3.05;;;0.50;;
35257;SDS011;21385;50.878;8.050;2023-07-28T13:11:53;0.52;;;0.52;;
35257;SDS011;21385;50.878;8.050;2023-07-28T13:14:19;0.65;;;0.50;;
35257;SDS011;21385;50.878;8.050;2023-07-28T13:16:45;1.60;;;0.28;;
35257;SDS011;21385;50.878;8.050;2023-07-28T13:19:10;0.35;;;0.32;;
35257;SDS011;21385;50.878;8.050;2023-07-28T13:21:36;0.30;;;0.30;;
35257;SDS011;21385;50.878;8.050;2023-07-28T13:24:02;0.20;;;0.20;;
35257;SDS011;21385;50.878;8.050;2023-07-28T13:26:28;0.20;;;0.20;;
35257;SDS011;21385;50.878;8.050;2023-07-28T13:28:53;0.20;;;0.20;;
35257;SDS011;21385;50.878;8.050;2023-07-28T13:31:21;3.97;;;0.50;;
35257;SDS011;21385;50.878;8.050;2023-07-28T13:33:47;0.30;;;0.30;;
35257;SDS011;21385;50.878;8.050;2023-07-28T13:36:12;0.45;;;0.30;;
35257;SDS011;21385;50.878;8.050;2023-07-28T13:38:38;3.65;;;0.32;;
35257;SDS011;21385;50.878;8.050;2023-07-28T13:41:05;0.22;;;0.22;;
35257;SDS011;21385;50.878;8.050;2023-07-28T13:43:31;0.30;;;0.25;;
35257;SDS011;21385;50.878;8.050;2023-07-28T13:45:58;0.38;;;0.38;;
35257;SDS011;21385;50.878;8.050;2023-07-28T13:48:23;0.30;;;0.30;;
35257;SDS011;21385;50.878;8.050;2023-07-28T13:50:49;0.80;;;0.43;;
35257;SDS011;21385;50.878;8.050;2023-07-28T13:53:15;0.85;;;0.32;;
35257;SDS011;21385;50.878;8.050;2023-07-28T13:55:40;0.30;;;0.20;;
35257;SDS011;21385;50.878;8.050;2023-07-28T13:58:06;0.32;;;0.25;;
35257;SDS011;21385;50.878;8.050;2023-07-28T14:00:32;0.20;;;0.20;;
35257;SDS011;21385;50.878;8.050;2023-07-28T14:02:57;0.20;;;0.20;;
35257;SDS011;21385;50.878;8.050;2023-07-28T14:05:23;0.43;;;0.38;;
35257;SDS011;21385;50.878;8.050;2023-07-28T14:07:48;0.47;;;0.30;;
35257;SDS011;21385;50.878;8.050;2023-07-28T14:10:14;0.30;;;0.30;;
35257;SDS011;21385;50.878;8.050;2023-07-28T14:12:39;0.32;;;0.20;;
35257;SDS011;21385;50.878;8.050;2023-07-28T14:15:06;0.25;;;0.20;;
35257;SDS011;21385;50.878;8.050;2023-07-28T14:17:33;0.22;;;0.20;;
35257;SDS011;21385;50.878;8.050;2023-07-28T14:19:58;0.15;;;0.15;;
35257;SDS011;21385;50.878;8.050;2023-07-28T14:22:24;0.20;;;0.20;;
35257;SDS011;21385;50.878;8.050;2023-07-28T14:24:50;0.85;;;0.50;;
35257;SDS011;21385;50.878;8.050;2023-07-28T14:27:15;0.47;;;0.30;;
35257;SDS011;21385;50.878;8.050;2023-07-28T14:29:41;0.20;;;0.20;;
35257;SDS011;21385;50.878;8.050;2023-07-28T14:32:07;1.08;;;0.30;;
35257;SDS011;21385;50.878;8.050;2023-07-28T14:34:33;0.30;;;0.30;;
35257;SDS011;21385;50.878;8.050;2023-07-28T14:37:00;0.20;;;0.20;;
35257;SDS011;21385;50.878;8.050;2023-07-28T14:39:29;0.20;;;0.20;;
35257;SDS011;21385;50.878;8.050;2023-07-28T14:41:55;0.20;;;0.20;;
35257;SDS011;21385;50.878;8.050;2023-07-28T14:44:21;0.28;;;0.20;;
35257;SDS011;21385;50.878;8.050;2023-07-28T14:46:47;0.20;;;0.20;;
35257;SDS011;21385;50.878;8.050;2023-07-28T14:49:12;0.15;;;0.15;;
35257;SDS011;21385;50.878;8.050;2023-07-28T14:51:38;0.10;;;0.10;;
35257;SDS011;21385;50.878;8.050;2023-07-28T14:54:03;0.85;;;0.20;;
35257;SDS011;21385;50.878;8.050;2023-07-28T14:56:29;0.60;;;0.40;;
35257;SDS011;21385;50.878;8.050;2023-07-28T14:58:55;0.30;;;0.30;;
35257;SDS011;21385;50.878;8.050;2023-07-28T15:01:21;0.20;;;0.20;;
35257;SDS011;21385;50.878;8.050;2023-07-28T15:03:46;0.45;;;0.30;;
35257;SDS011;21385;50.878;8.050;2023-07-28T15:06:12;0.35;;;0.35;;
35257;SDS011;21385;50.878;8.050;2023-07-28T15:08:38;0.30;;;0.30;;
35257;SDS011;21385;50.878;8.050;2023-07-28T15:11:03;0.10;;;0.10;;
35257;SDS011;21385;50.878;8.050;2023-07-28T15:13:29;0.22;;;0.22;;
35257;SDS011;21385;50.878;8.050;2023-07-28T15:15:54;0.20;;;0.20;;
35257;SDS011;21385;50.878;8.050;2023-07-28T15:18:20;1.88;;;0.40;;
35257;SDS011;21385;50.878;8.050;2023-07-28T15:20:46;0.20;;;0.20;;
35257;SDS011;21385;50.878;8.050;2023-07-28T15:23:11;0.30;;;0.30;;
35257;SDS011;21385;50.878;8.050;2023-07-28T15:25:37;0.30;;;0.30;;
35257;SDS011;21385;50.878;8.050;2023-07-28T15:28:07;0.38;;;0.30;;
35257;SDS011;21385;50.878;8.050;2023-07-28T15:30:39;2.72;;;0.38;;